createdAt,value
2023-03-25T00:00:18.829Z,99635.81
2023-03-25T00:02:49.350Z,99643.72
2023-03-25T00:05:20.130Z,99645.81
2023-03-25T00:07:51.712Z,99649.88
2023-03-25T00:10:19.611Z,99649.28
2023-03-25T00:12:46.604Z,99643.88
2023-03-25T00:15:16.446Z,99644.59
2023-03-25T00:17:44.152Z,99643.88
2023-03-25T00:20:12.536Z,99636.72
2023-03-25T00:22:41.996Z,99638.59
2023-03-25T00:25:11.106Z,99635.56
2023-03-25T00:27:38.344Z,99620.16
2023-03-25T00:30:06.660Z,99637.38
2023-03-25T00:32:33.653Z,99627.63
2023-03-25T00:35:00.940Z,99615.47
2023-03-25T00:37:28.437Z,99621.28
2023-03-25T00:39:55.315Z,99623.78
2023-03-25T00:42:26.143Z,99620.81
2023-03-25T00:44:53.819Z,99611.09
2023-03-25T00:47:21.907Z,99604.91
2023-03-25T00:49:50.770Z,99609.81
2023-03-25T00:52:18.343Z,99599.28
2023-03-25T00:54:45.924Z,99594.25
2023-03-25T00:57:17.539Z,99597.66
2023-03-25T00:59:44.499Z,99592.25
2023-03-25T01:02:11.572Z,99583.53
2023-03-25T01:04:41.614Z,99561.13
2023-03-25T01:07:09.785Z,99566.97
2023-03-25T01:09:39.705Z,99576.66
2023-03-25T01:12:06.860Z,99567.09
2023-03-25T01:14:34.196Z,99571.47
2023-03-25T01:17:01.159Z,99569.69
2023-03-25T01:19:28.254Z,99573.09
2023-03-25T01:21:55.434Z,99573.38
2023-03-25T01:24:22.428Z,99587.53
2023-03-25T01:26:49.372Z,99601.50
2023-03-25T01:29:19.705Z,99600.03
2023-03-25T01:31:47.383Z,99622.06
2023-03-25T01:34:15.412Z,99632.28
2023-03-25T01:36:46.548Z,99651.44
2023-03-25T01:39:17.243Z,99700.91
2023-03-25T01:41:50.300Z,99720.91
2023-03-25T01:44:21.012Z,99701.03
2023-03-25T01:46:52.898Z,99660.00
2023-03-25T01:49:40.725Z,99631.81
2023-03-25T01:52:19.902Z,99620.75
2023-03-25T01:54:47.928Z,99612.38
2023-03-25T01:57:19.614Z,99616.19
2023-03-25T01:59:47.583Z,99595.31
2023-03-25T02:02:18.825Z,99596.22
2023-03-25T02:04:59.994Z,99604.91
2023-03-25T02:07:31.053Z,99608.22
2023-03-25T02:10:05.743Z,99594.94
2023-03-25T02:12:32.771Z,99594.19
2023-03-25T02:15:04.842Z,99587.69
2023-03-25T02:17:49.718Z,99599.22
2023-03-25T02:20:57.666Z,99610.41
2023-03-25T02:23:28.375Z,99614.75
2023-03-25T02:26:18.288Z,99616.50
2023-03-25T02:29:42.918Z,99614.34
2023-03-25T02:32:38.091Z,99623.25
2023-03-25T02:35:27.788Z,99636.06
2023-03-25T02:38:33.274Z,99630.41
2023-03-25T02:41:25.902Z,99630.63
2023-03-25T02:44:04.396Z,99631.09
2023-03-25T02:46:33.823Z,99628.25
2023-03-25T02:49:13.985Z,99636.41
2023-03-25T02:51:49.740Z,99634.94
2023-03-25T02:54:19.415Z,99642.94
2023-03-25T02:56:48.722Z,99647.59
2023-03-25T02:59:18.169Z,99654.31
2023-03-25T03:01:45.546Z,99658.78
2023-03-25T03:04:12.629Z,99661.28
2023-03-25T03:06:43.358Z,99645.97
2023-03-25T03:09:29.153Z,99647.09
2023-03-25T03:12:19.736Z,99651.22
2023-03-25T03:15:32.246Z,99644.19
2023-03-25T03:18:27.444Z,99637.28
2023-03-25T03:21:23.396Z,99636.09
2023-03-25T03:24:01.016Z,99645.13
2023-03-25T03:26:53.281Z,99626.63
2023-03-25T03:29:28.393Z,99644.31
2023-03-25T03:32:29.625Z,99639.88
2023-03-25T03:35:03.724Z,99640.94
2023-03-25T03:37:38.339Z,99622.50
2023-03-25T03:40:13.390Z,99624.25
2023-03-25T03:42:58.361Z,99624.13
2023-03-25T03:45:48.679Z,99624.13
2023-03-25T03:48:40.849Z,99627.00
2023-03-25T03:51:29.133Z,99635.84
2023-03-25T03:54:13.257Z,99630.34
2023-03-25T03:56:54.867Z,99643.75
2023-03-25T03:59:41.968Z,99640.22
2023-03-25T04:02:24.309Z,99639.53
2023-03-25T04:04:53.840Z,99627.47
2023-03-25T04:07:39.075Z,99621.50
2023-03-25T04:10:15.170Z,99639.63
2023-03-25T04:12:52.729Z,99648.72
2023-03-25T04:15:19.944Z,99645.75
2023-03-25T04:17:48.253Z,99649.69
2023-03-25T04:20:23.860Z,99649.31
2023-03-25T04:22:52.559Z,99650.34
2023-03-25T04:25:21.582Z,99647.09
2023-03-25T04:27:49.193Z,99648.06
2023-03-25T04:30:18.035Z,99658.78
2023-03-25T04:32:47.037Z,99642.41
2023-03-25T04:35:17.076Z,99640.72
2023-03-25T04:37:49.139Z,99646.22
2023-03-25T04:40:18.889Z,99650.88
2023-03-25T04:42:47.777Z,99647.59
2023-03-25T04:45:16.981Z,99641.84
2023-03-25T04:47:47.745Z,99648.22
2023-03-25T04:50:29.783Z,99660.81
2023-03-25T04:52:58.143Z,99656.75
2023-03-25T04:55:25.831Z,99649.63
2023-03-25T04:57:54.936Z,99668.41
2023-03-25T05:00:25.223Z,99691.53
2023-03-25T05:02:55.875Z,99698.44
2023-03-25T05:05:25.269Z,99699.31
2023-03-25T05:07:55.010Z,99689.06
2023-03-25T05:10:24.770Z,99684.22
2023-03-25T05:13:02.636Z,99688.16
2023-03-25T05:15:35.187Z,99685.53
2023-03-25T05:18:02.537Z,99681.19
2023-03-25T05:20:30.804Z,99683.13
2023-03-25T05:22:57.742Z,99670.47
2023-03-25T05:25:24.708Z,99667.88
2023-03-25T05:27:51.593Z,99677.41
2023-03-25T05:30:19.235Z,99678.75
2023-03-25T05:32:50.940Z,99689.63
2023-03-25T05:35:23.526Z,99689.41
2023-03-25T05:37:51.560Z,99681.94
2023-03-25T05:40:18.927Z,99696.34
2023-03-25T05:42:48.784Z,99687.31
2023-03-25T05:45:17.390Z,99692.03
2023-03-25T05:47:44.704Z,99695.53
2023-03-25T05:50:11.896Z,99697.75
2023-03-25T05:52:41.722Z,99702.72
2023-03-25T05:55:20.507Z,99700.72
2023-03-25T05:57:48.070Z,99708.31
2023-03-25T06:00:23.434Z,99717.22
2023-03-25T06:02:51.022Z,99716.53
2023-03-25T06:05:18.143Z,99711.06
2023-03-25T06:07:47.603Z,99712.06
2023-03-25T06:10:19.329Z,99715.41
2023-03-25T06:12:47.573Z,99707.09
2023-03-25T06:15:28.825Z,99708.16
2023-03-25T06:18:00.037Z,99704.59
2023-03-25T06:20:27.398Z,99702.53
2023-03-25T06:22:54.358Z,99705.13
2023-03-25T06:25:22.518Z,99713.72
2023-03-25T06:27:51.121Z,99703.84
2023-03-25T06:30:21.078Z,99708.53
2023-03-25T06:32:50.669Z,99719.63
2023-03-25T06:35:20.291Z,99714.34
2023-03-25T06:37:49.005Z,99722.44
2023-03-25T06:40:17.099Z,99720.66
2023-03-25T06:42:44.140Z,99711.22
2023-03-25T06:45:12.742Z,99718.44
2023-03-25T06:47:40.025Z,99720.88
2023-03-25T06:50:08.123Z,99729.44
2023-03-25T06:52:35.032Z,99738.00
2023-03-25T06:55:02.062Z,99726.88
2023-03-25T06:57:28.987Z,99710.09
2023-03-25T06:59:55.960Z,99706.09
2023-03-25T07:02:23.002Z,99707.31
2023-03-25T07:04:50.145Z,99696.00
2023-03-25T07:07:17.162Z,99706.13
2023-03-25T07:09:44.078Z,99690.78
2023-03-25T07:12:10.962Z,99703.38
2023-03-25T07:14:37.873Z,99692.97
2023-03-25T07:17:04.795Z,99705.00
2023-03-25T07:19:31.747Z,99702.00
2023-03-25T07:21:58.703Z,99695.50
2023-03-25T07:24:25.639Z,99693.53
2023-03-25T07:26:52.600Z,99700.72
2023-03-25T07:29:19.573Z,99707.66
2023-03-25T07:31:46.760Z,99713.88
2023-03-25T07:34:13.812Z,99723.84
2023-03-25T07:36:41.023Z,99722.84
2023-03-25T07:39:08.023Z,99728.03
2023-03-25T07:41:34.940Z,99731.09
2023-03-25T07:44:01.909Z,99715.19
2023-03-25T07:46:29.016Z,99726.31
2023-03-25T07:48:55.965Z,99743.22
2023-03-25T07:51:23.023Z,99739.34
2023-03-25T07:53:50.034Z,99743.97
2023-03-25T07:56:17.045Z,99741.66
2023-03-25T07:58:44.565Z,99760.72
2023-03-25T08:01:12.164Z,99760.25
2023-03-25T08:03:40.057Z,99766.91
2023-03-25T08:06:08.295Z,99748.16
2023-03-25T08:08:36.071Z,99751.03
2023-03-25T08:11:03.143Z,99724.97
2023-03-25T08:13:30.767Z,99738.84
2023-03-25T08:15:57.717Z,99738.84
2023-03-25T08:18:24.721Z,99742.69
2023-03-25T08:20:52.261Z,99747.78
2023-03-25T08:23:20.250Z,99755.41
2023-03-25T08:25:50.009Z,99769.56
2023-03-25T08:28:22.468Z,99773.38
2023-03-25T08:30:54.967Z,99747.19
2023-03-25T08:33:34.203Z,99760.00
2023-03-25T08:36:02.046Z,99761.69
2023-03-25T08:38:34.657Z,99754.34
2023-03-25T08:41:03.288Z,99758.28
2023-03-25T08:43:30.273Z,99747.56
2023-03-25T08:45:57.160Z,99748.25
2023-03-25T08:48:24.854Z,99743.44
2023-03-25T08:50:51.763Z,99736.47
2023-03-25T08:53:18.809Z,99736.94
2023-03-25T08:55:45.775Z,99742.69
2023-03-25T08:58:12.686Z,99735.00
2023-03-25T09:00:39.601Z,99731.50
2023-03-25T09:03:07.564Z,99731.09
2023-03-25T09:05:40.242Z,99716.06
2023-03-25T09:08:08.871Z,99709.00
2023-03-25T09:10:37.629Z,99715.06
2023-03-25T09:13:05.380Z,99712.03
2023-03-25T09:15:32.640Z,99704.44
2023-03-25T09:17:59.739Z,99708.25
2023-03-25T09:20:26.822Z,99717.38
2023-03-25T09:22:53.684Z,99709.25
2023-03-25T09:25:20.852Z,99704.41
2023-03-25T09:27:48.181Z,99707.00
2023-03-25T09:30:15.707Z,99705.38
2023-03-25T09:32:42.828Z,99692.88
2023-03-25T09:35:09.977Z,99714.47
2023-03-25T09:37:37.788Z,99701.28
2023-03-25T09:40:06.086Z,99692.19
2023-03-25T09:42:48.959Z,99716.41
2023-03-25T09:45:38.701Z,99703.56
2023-03-25T09:48:30.257Z,99710.75
2023-03-25T09:51:05.975Z,99706.94
2023-03-25T09:53:48.843Z,99702.91
2023-03-25T09:56:21.776Z,99699.53
2023-03-25T09:59:01.913Z,99697.41
2023-03-25T10:02:11.204Z,99690.03
2023-03-25T10:05:14.696Z,99688.69
2023-03-25T10:08:18.946Z,99674.50
2023-03-25T10:11:19.198Z,99685.25
2023-03-25T10:14:01.075Z,99656.88
2023-03-25T10:16:52.729Z,99658.41
2023-03-25T10:19:31.910Z,99675.94
2023-03-25T10:22:05.462Z,99667.78
2023-03-25T10:24:40.435Z,99669.78
2023-03-25T10:27:43.424Z,99668.84
2023-03-25T10:30:17.844Z,99670.38
2023-03-25T10:32:51.070Z,99647.41
2023-03-25T10:35:27.772Z,99667.16
2023-03-25T10:38:13.921Z,99656.09
2023-03-25T10:40:45.120Z,99668.31
2023-03-25T10:43:23.793Z,99658.84
2023-03-25T10:45:55.774Z,99674.19
2023-03-25T10:48:31.648Z,99682.06
2023-03-25T10:51:12.717Z,99676.13
2023-03-25T10:53:47.497Z,99662.28
2023-03-25T10:56:18.110Z,99671.09
2023-03-25T10:58:51.587Z,99673.16
2023-03-25T11:01:22.624Z,99670.06
2023-03-25T11:03:53.693Z,99663.44
2023-03-25T11:06:34.084Z,99671.41
2023-03-25T11:09:17.994Z,99667.69
2023-03-25T11:11:47.248Z,99685.44
2023-03-25T11:14:15.239Z,99693.09
2023-03-25T11:16:57.655Z,99687.50
2023-03-25T11:19:31.113Z,99684.50
2023-03-25T11:22:03.478Z,99694.00
2023-03-25T11:24:45.525Z,99661.72
2023-03-25T11:27:30.846Z,99652.25
2023-03-25T11:30:05.529Z,99633.44
2023-03-25T11:32:38.328Z,99633.41
2023-03-25T11:35:18.605Z,99630.84
2023-03-25T11:37:49.837Z,99600.22
2023-03-25T11:40:18.754Z,99609.16
2023-03-25T11:42:52.359Z,99622.34
2023-03-25T11:45:23.654Z,99642.41
2023-03-25T11:47:51.494Z,99660.66
2023-03-25T11:50:26.133Z,99665.31
2023-03-25T11:53:01.026Z,99668.66
2023-03-25T11:55:56.301Z,99641.34
2023-03-25T11:58:29.208Z,99621.94
2023-03-25T12:01:36.987Z,99618.09
2023-03-25T12:04:24.889Z,99601.50
2023-03-25T12:07:10.219Z,99592.56
2023-03-25T12:09:37.275Z,99603.47
2023-03-25T12:12:07.178Z,99592.44
2023-03-25T12:14:39.884Z,99604.41
2023-03-25T12:17:22.921Z,99589.41
2023-03-25T12:20:16.707Z,99601.72
2023-03-25T12:23:02.781Z,99580.28
2023-03-25T12:25:41.428Z,99567.59
2023-03-25T12:28:23.646Z,99555.97
2023-03-25T12:31:19.298Z,99559.72
2023-03-25T12:34:07.269Z,99557.47
2023-03-25T12:37:18.277Z,99547.13
2023-03-25T12:39:47.942Z,99545.19
2023-03-25T12:43:07.623Z,99538.75
2023-03-25T12:46:16.276Z,99553.44
2023-03-25T12:49:28.752Z,99546.31
2023-03-25T12:52:20.244Z,99554.25
2023-03-25T12:55:22.364Z,99524.03
2023-03-25T12:58:27.129Z,99519.44
2023-03-25T13:01:16.986Z,99520.81
2023-03-25T13:04:28.111Z,99537.31
2023-03-25T13:07:17.253Z,99529.16
2023-03-25T13:10:12.005Z,99466.00
2023-03-25T13:12:43.158Z,99482.53
2023-03-25T13:15:27.873Z,99484.50
2023-03-25T13:18:35.612Z,99473.09
2023-03-25T13:21:16.772Z,99465.25
2023-03-25T13:23:52.257Z,99468.41
2023-03-25T13:26:24.239Z,99445.09
2023-03-25T13:28:58.970Z,99451.63
2023-03-25T13:31:37.404Z,99456.31
2023-03-25T13:34:23.260Z,99451.41
2023-03-25T13:37:29.660Z,99435.50
2023-03-25T13:40:12.926Z,99450.50
2023-03-25T13:43:20.403Z,99472.09
2023-03-25T13:46:21.052Z,99470.19
2023-03-25T13:49:24.040Z,99486.25
2023-03-25T13:51:50.889Z,99503.38
2023-03-25T13:54:35.946Z,99522.88
2023-03-25T13:57:36.661Z,99532.66
2023-03-25T14:00:27.130Z,99518.94
2023-03-25T14:03:36.097Z,99530.75
2023-03-25T14:06:35.100Z,99531.50
2023-03-25T14:09:55.774Z,99548.19
2023-03-25T14:12:58.647Z,99515.19
2023-03-25T14:15:35.766Z,99514.16
2023-03-25T14:18:04.299Z,99499.88
2023-03-25T14:20:40.314Z,99494.56
2023-03-25T14:23:18.383Z,99494.34
2023-03-25T14:25:50.259Z,99483.00
2023-03-25T14:28:31.778Z,99494.16
2023-03-25T14:31:22.044Z,99506.47
2023-03-25T14:34:03.955Z,99488.72
2023-03-25T14:36:39.975Z,99451.44
2023-03-25T14:39:14.241Z,99460.16
2023-03-25T14:42:11.269Z,99459.47
2023-03-25T14:44:42.193Z,99462.84
2023-03-25T14:47:20.797Z,99474.16
2023-03-25T14:50:21.875Z,99465.00
2023-03-25T14:53:20.126Z,99470.91
2023-03-25T14:55:48.116Z,99460.75
2023-03-25T14:58:21.085Z,99479.66
2023-03-25T15:01:06.088Z,99456.19
2023-03-25T15:03:37.808Z,99472.91
2023-03-25T15:06:09.332Z,99447.41
2023-03-25T15:08:40.793Z,99464.16
2023-03-25T15:11:17.184Z,99445.50
2023-03-25T15:13:52.748Z,99462.78
2023-03-25T15:16:35.482Z,99454.44
2023-03-25T15:19:10.451Z,99434.94
2023-03-25T15:22:02.959Z,99446.13
2023-03-25T15:24:31.839Z,99454.94
2023-03-25T15:27:08.268Z,99446.31
2023-03-25T15:29:53.242Z,99447.81
2023-03-25T15:32:38.274Z,99473.47
2023-03-25T15:35:55.685Z,99456.25
2023-03-25T15:38:53.401Z,99470.81
2023-03-25T15:41:57.201Z,99449.47
2023-03-25T15:44:42.641Z,99456.13
2023-03-25T15:47:40.489Z,99457.56
2023-03-25T15:50:18.922Z,99446.84
2023-03-25T15:53:02.608Z,99442.53
2023-03-25T15:55:38.273Z,99443.34
2023-03-25T15:58:34.074Z,99440.03
2023-03-25T16:01:25.748Z,99454.50
2023-03-25T16:04:18.818Z,99454.69
2023-03-25T16:06:50.919Z,99449.69
2023-03-25T16:11:52.386Z,99453.75
2023-03-25T16:14:22.692Z,99472.50
2023-03-25T16:16:52.019Z,99480.78
2023-03-25T16:19:23.992Z,99475.47
2023-03-25T16:21:53.741Z,99485.28
2023-03-25T16:24:26.424Z,99477.72
2023-03-25T16:26:53.486Z,99483.75
2023-03-25T16:29:24.794Z,99478.91
2023-03-25T16:32:02.126Z,99482.34
2023-03-25T16:34:37.855Z,99509.25
2023-03-25T16:37:06.301Z,99502.81
2023-03-25T16:39:36.712Z,99485.50
2023-03-25T16:42:13.859Z,99504.13
2023-03-25T16:44:41.056Z,99487.06
2023-03-25T16:47:11.984Z,99479.97
2023-03-25T16:49:39.650Z,99487.44
2023-03-25T16:52:19.623Z,99498.44
2023-03-25T16:55:42.562Z,99498.69
2023-03-25T16:58:23.754Z,99498.50
2023-03-25T17:00:54.448Z,99497.03
2023-03-25T17:03:46.499Z,99504.25
2023-03-25T17:06:35.328Z,99499.66
2023-03-25T17:09:04.809Z,99502.50
2023-03-25T17:11:33.173Z,99515.84
2023-03-25T17:14:19.173Z,99520.16
2023-03-25T17:16:49.621Z,99522.09
2023-03-25T17:19:18.438Z,99531.28
2023-03-25T17:22:16.458Z,99545.06
2023-03-25T17:24:56.144Z,99557.06
2023-03-25T17:27:36.088Z,99570.47
2023-03-25T17:30:32.225Z,99571.75
2023-03-25T17:33:38.914Z,99585.06
2023-03-25T17:36:11.337Z,99595.94
2023-03-25T17:38:45.894Z,99586.59
2023-03-25T17:41:16.054Z,99596.06
2023-03-25T17:43:50.885Z,99607.50
2023-03-25T17:46:25.641Z,99619.38
2023-03-25T17:48:57.137Z,99623.97
2023-03-25T17:51:30.454Z,99616.78
2023-03-25T17:53:57.763Z,99601.53
2023-03-25T17:56:27.829Z,99615.00
2023-03-25T17:59:07.657Z,99660.50
2023-03-25T18:01:36.212Z,99703.72
2023-03-25T18:04:05.299Z,99730.69
2023-03-25T18:06:32.228Z,99740.69
2023-03-25T18:08:59.166Z,99753.41
2023-03-25T18:11:26.185Z,99752.09
2023-03-25T18:13:54.420Z,99773.44
2023-03-25T18:16:22.587Z,99779.59
2023-03-25T18:18:49.651Z,99783.53
2023-03-25T18:21:17.813Z,99786.28
2023-03-25T18:23:47.717Z,99801.06
2023-03-25T18:26:18.793Z,99815.06
2023-03-25T18:28:47.130Z,99805.31
2023-03-25T18:31:19.443Z,99811.19
2023-03-25T18:33:51.225Z,99854.09
2023-03-25T18:36:19.186Z,99854.94
2023-03-25T18:38:46.084Z,99861.44
2023-03-25T18:41:14.445Z,99877.06
2023-03-25T18:43:44.674Z,99858.50
2023-03-25T18:46:14.195Z,99845.63
2023-03-25T18:48:42.392Z,99852.50
2023-03-25T18:51:13.740Z,99848.13
2023-03-25T18:53:41.510Z,99852.75
2023-03-25T18:56:09.670Z,99859.41
2023-03-25T18:58:36.933Z,99850.81
2023-03-25T19:01:07.508Z,99841.81
2023-03-25T19:03:40.653Z,99853.56
2023-03-25T19:06:13.689Z,99842.41
2023-03-25T19:08:43.461Z,99828.94
2023-03-25T19:11:21.192Z,99821.25
2023-03-25T19:13:50.932Z,99813.84
2023-03-25T19:16:18.738Z,99812.59
2023-03-25T19:18:47.346Z,99806.25
2023-03-25T19:21:17.308Z,99817.38
2023-03-25T19:23:44.422Z,99802.88
2023-03-25T19:26:12.168Z,99814.91
2023-03-25T19:28:39.773Z,99836.28
2023-03-25T19:31:06.936Z,99837.41
2023-03-25T19:33:34.051Z,99858.09
2023-03-25T19:36:03.750Z,99855.75
2023-03-25T19:38:33.097Z,99873.41
2023-03-25T19:41:10.835Z,99879.50
2023-03-25T19:43:38.153Z,99877.88
2023-03-25T19:46:07.341Z,99867.94
2023-03-25T19:48:36.157Z,99873.66
2023-03-25T19:51:04.083Z,99882.22
2023-03-25T19:53:31.584Z,99867.81
2023-03-25T19:56:04.651Z,99869.59
2023-03-25T19:58:34.604Z,99888.44
2023-03-25T20:01:01.851Z,99889.47
2023-03-25T20:03:31.327Z,99891.47
2023-03-25T20:06:00.792Z,99897.38
2023-03-25T20:08:29.684Z,99887.16
2023-03-25T20:10:58.111Z,99901.56
2023-03-25T20:13:25.486Z,99898.50
2023-03-25T20:15:53.049Z,99892.84
2023-03-25T20:18:20.513Z,99884.66
2023-03-25T20:20:47.441Z,99880.78
2023-03-25T20:23:14.559Z,99878.09
2023-03-25T20:25:41.575Z,99866.91
2023-03-25T20:28:08.840Z,99845.63
2023-03-25T20:30:36.046Z,99847.25
2023-03-25T20:33:04.730Z,99846.44
2023-03-25T20:35:32.291Z,99848.06
2023-03-25T20:38:02.104Z,99837.34
2023-03-25T20:40:41.482Z,99849.03
2023-03-25T20:43:13.471Z,99849.44
2023-03-25T20:45:40.471Z,99844.59
2023-03-25T20:48:08.889Z,99835.13
2023-03-25T20:50:36.608Z,99840.00
2023-03-25T20:53:04.610Z,99850.38
2023-03-25T20:55:32.208Z,99856.47
2023-03-25T20:58:00.106Z,99869.91
2023-03-25T21:00:27.184Z,99873.25
2023-03-25T21:02:54.519Z,99853.13
2023-03-25T21:05:21.544Z,99845.25
2023-03-25T21:07:48.524Z,99851.13
2023-03-25T21:10:16.301Z,99862.31
2023-03-25T21:12:44.826Z,99860.78
2023-03-25T21:15:14.988Z,99871.09
2023-03-25T21:17:42.921Z,99864.84
2023-03-25T21:20:11.301Z,99867.28
2023-03-25T21:22:44.826Z,99864.84
2023-03-25T21:25:14.820Z,99857.94
2023-03-25T21:27:44.889Z,99866.47
2023-03-25T21:30:12.939Z,99866.03
2023-03-25T21:32:40.370Z,99870.16
2023-03-25T21:35:09.033Z,99869.03
2023-03-25T21:37:40.298Z,99858.75
2023-03-25T21:40:11.255Z,99864.66
2023-03-25T21:42:41.412Z,99862.84
2023-03-25T21:45:11.980Z,99871.03
2023-03-25T21:47:40.068Z,99859.31
2023-03-25T21:50:10.395Z,99853.50
2023-03-25T21:52:43.291Z,99861.59
2023-03-25T21:55:11.505Z,99868.28
2023-03-25T21:57:39.587Z,99860.94
2023-03-25T22:00:08.567Z,99855.13
2023-03-25T22:02:35.804Z,99856.09
2023-03-25T22:05:03.590Z,99839.91
2023-03-25T22:07:31.092Z,99835.69
2023-03-25T22:09:58.119Z,99825.06
2023-03-25T22:12:25.045Z,99838.53
2023-03-25T22:14:51.941Z,99840.00
2023-03-25T22:17:19.080Z,99854.00
2023-03-25T22:19:47.796Z,99871.94
2023-03-25T22:22:19.011Z,99868.06
2023-03-25T22:24:47.364Z,99864.03
2023-03-25T22:27:15.533Z,99860.25
2023-03-25T22:29:43.284Z,99864.41
2023-03-25T22:32:10.532Z,99853.56
2023-03-25T22:34:38.024Z,99871.69
2023-03-25T22:37:05.000Z,99874.34
2023-03-25T22:39:32.032Z,99890.97
2023-03-25T22:41:59.189Z,99909.25
2023-03-25T22:44:26.530Z,99906.78
2023-03-25T22:46:53.600Z,99889.34
2023-03-25T22:49:21.795Z,99886.66
2023-03-25T22:51:51.024Z,99877.03
2023-03-25T22:54:18.065Z,99874.69
2023-03-25T22:56:45.271Z,99866.34
2023-03-25T22:59:14.029Z,99864.91
2023-03-25T23:01:42.598Z,99876.03
2023-03-25T23:04:09.679Z,99874.59
2023-03-25T23:06:37.277Z,99873.75
2023-03-25T23:09:08.471Z,99858.56
2023-03-25T23:11:37.112Z,99861.88
2023-03-25T23:14:09.037Z,99859.06
2023-03-25T23:16:38.676Z,99864.19
2023-03-25T23:19:06.961Z,99870.16
2023-03-25T23:21:34.622Z,99864.03
2023-03-25T23:24:03.781Z,99863.00
2023-03-25T23:26:40.698Z,99865.69
2023-03-25T23:29:11.602Z,99862.69
2023-03-25T23:31:43.284Z,99869.25
2023-03-25T23:34:14.233Z,99865.63
2023-03-25T23:36:41.788Z,99865.28
2023-03-25T23:39:17.038Z,99856.47
2023-03-25T23:41:44.305Z,99870.91
2023-03-25T23:44:11.448Z,99856.47
2023-03-25T23:46:38.534Z,99852.75
2023-03-25T23:49:05.861Z,99842.16
2023-03-25T23:51:41.877Z,99848.31
2023-03-25T23:54:13.304Z,99839.94
2023-03-25T23:56:42.083Z,99829.84
2023-03-25T23:59:11.670Z,99845.09
